sensor_id;sensor_type;location;lat;lon;timestamp;P1;P2;P0
72031;PMS5003;49185;42.320;23.198;2023-07-31T00:00:27;7.75;7.75;5.00
72031;PMS5003;49185;42.320;23.198;2023-07-31T00:02:53;11.00;11.00;4.00
72031;PMS5003;49185;42.320;23.198;2023-07-31T00:05:19;10.25;9.50;4.25
72031;PMS5003;49185;42.320;23.198;2023-07-31T00:07:45;12.75;11.75;7.00
72031;PMS5003;49185;42.320;23.198;2023-07-31T00:10:11;11.00;10.00;4.00
72031;PMS5003;49185;42.320;23.198;2023-07-31T00:12:37;13.00;12.00;5.00
72031;PMS5003;49185;42.320;23.198;2023-07-31T00:15:03;14.00;12.00;6.00
72031;PMS5003;49185;42.320;23.198;2023-07-31T00:17:29;15.00;13.00;6.00
72031;PMS5003;49185;42.320;23.198;2023-07-31T00:19:55;15.00;11.67;5.00
72031;PMS5003;49185;42.320;23.198;2023-07-31T00:22:20;12.67;11.67;5.33
72031;PMS5003;49185;42.320;23.198;2023-07-31T00:24:45;13.33;11.67;6.00
72031;PMS5003;49185;42.320;23.198;2023-07-31T00:27:11;15.00;14.00;7.00
72031;PMS5003;49185;42.320;23.198;2023-07-31T00:29:37;16.00;13.00;5.00
72031;PMS5003;49185;42.320;23.198;2023-07-31T00:32:03;15.00;11.00;5.00
72031;PMS5003;49185;42.320;23.198;2023-07-31T00:34:28;12.00;10.00;5.00
72031;PMS5003;49185;42.320;23.198;2023-07-31T00:36:54;13.00;12.00;6.00
72031;PMS5003;49185;42.320;23.198;2023-07-31T00:39:19;13.00;12.00;4.33
72031;PMS5003;49185;42.320;23.198;2023-07-31T00:41:45;13.00;13.00;4.33
72031;PMS5003;49185;42.320;23.198;2023-07-31T00:44:10;9.00;9.00;4.67
72031;PMS5003;49185;42.320;23.198;2023-07-31T00:46:36;9.67;8.67;4.00
72031;PMS5003;49185;42.320;23.198;2023-07-31T00:49:01;9.00;7.00;4.67
72031;PMS5003;49185;42.320;23.198;2023-07-31T00:51:28;9.75;9.00;4.00
72031;PMS5003;49185;42.320;23.198;2023-07-31T00:53:53;9.00;9.00;4.67
72031;PMS5003;49185;42.320;23.198;2023-07-31T00:56:18;13.00;12.00;5.67
72031;PMS5003;49185;42.320;23.198;2023-07-31T00:58:44;10.00;8.00;5.00
72031;PMS5003;49185;42.320;23.198;2023-07-31T01:01:09;8.67;8.00;4.00
72031;PMS5003;49185;42.320;23.198;2023-07-31T01:03:35;7.00;7.00;4.00
72031;PMS5003;49185;42.320;23.198;2023-07-31T01:08:37;8.75;8.75;4.00
72031;PMS5003;49185;42.320;23.198;2023-07-31T01:11:13;8.00;8.00;4.00
72031;PMS5003;49185;42.320;23.198;2023-07-31T01:13:40;6.75;6.75;3.50
72031;PMS5003;49185;42.320;23.198;2023-07-31T01:16:08;6.50;6.00;3.00
72031;PMS5003;49185;42.320;23.198;2023-07-31T01:18:33;8.67;8.00;3.00
72031;PMS5003;49185;42.320;23.198;2023-07-31T01:21:03;9.00;7.33;3.00
72031;PMS5003;49185;42.320;23.198;2023-07-31T01:26:24;7.00;7.00;4.00
72031;PMS5003;49185;42.320;23.198;2023-07-31T01:28:56;8.00;7.00;4.00
72031;PMS5003;49185;42.320;23.198;2023-07-31T01:31:26;9.00;9.00;5.00
72031;PMS5003;49185;42.320;23.198;2023-07-31T01:33:56;8.50;8.00;3.50
72031;PMS5003;49185;42.320;23.198;2023-07-31T01:36:24;8.00;7.00;4.00
72031;PMS5003;49185;42.320;23.198;2023-07-31T01:38:50;7.75;6.50;2.25
72031;PMS5003;49185;42.320;23.198;2023-07-31T01:41:17;8.00;7.00;3.00
72031;PMS5003;49185;42.320;23.198;2023-07-31T01:43:42;9.00;7.00;5.00
72031;PMS5003;49185;42.320;23.198;2023-07-31T01:46:08;8.67;8.00;4.00
72031;PMS5003;49185;42.320;23.198;2023-07-31T01:48:33;10.00;7.00;3.33
72031;PMS5003;49185;42.320;23.198;2023-07-31T01:51:00;7.67;7.00;4.00
72031;PMS5003;49185;42.320;23.198;2023-07-31T01:53:25;8.25;7.00;4.00
72031;PMS5003;49185;42.320;23.198;2023-07-31T01:55:51;7.67;7.67;3.67
72031;PMS5003;49185;42.320;23.198;2023-07-31T01:58:16;7.00;7.00;3.00
72031;PMS5003;49185;42.320;23.198;2023-07-31T02:00:42;10.00;10.00;4.00
72031;PMS5003;49185;42.320;23.198;2023-07-31T02:03:07;12.67;11.00;4.00
72031;PMS5003;49185;42.320;23.198;2023-07-31T02:05:32;12.33;9.33;4.33
72031;PMS5003;49185;42.320;23.198;2023-07-31T02:07:58;8.00;7.33;4.00
72031;PMS5003;49185;42.320;23.198;2023-07-31T02:10:26;9.75;9.25;5.00
72031;PMS5003;49185;42.320;23.198;2023-07-31T02:12:51;13.00;13.00;5.33
72031;PMS5003;49185;42.320;23.198;2023-07-31T02:15:17;14.00;14.00;7.00
72031;PMS5003;49185;42.320;23.198;2023-07-31T02:17:42;15.67;15.67;6.67
72031;PMS5003;49185;42.320;23.198;2023-07-31T02:20:08;20.67;19.67;9.00
72031;PMS5003;49185;42.320;23.198;2023-07-31T02:22:33;24.00;22.00;11.25
72031;PMS5003;49185;42.320;23.198;2023-07-31T02:24:59;26.00;23.00;12.00
72031;PMS5003;49185;42.320;23.198;2023-07-31T02:27:24;24.67;22.00;11.67
72031;PMS5003;49185;42.320;23.198;2023-07-31T02:29:50;24.00;21.00;10.00
72031;PMS5003;49185;42.320;23.198;2023-07-31T02:32:34;23.00;21.00;11.00
72031;PMS5003;49185;42.320;23.198;2023-07-31T02:34:59;20.00;20.00;8.00
72031;PMS5003;49185;42.320;23.198;2023-07-31T02:37:24;21.00;20.67;7.67
72031;PMS5003;49185;42.320;23.198;2023-07-31T02:39:50;23.67;22.67;11.67
72031;PMS5003;49185;42.320;23.198;2023-07-31T02:42:16;26.00;24.00;14.00
72031;PMS5003;49185;42.320;23.198;2023-07-31T02:44:41;25.00;24.00;14.00
72031;PMS5003;49185;42.320;23.198;2023-07-31T02:47:06;24.00;22.00;11.00
72031;PMS5003;49185;42.320;23.198;2023-07-31T02:49:32;23.00;21.33;10.00
72031;PMS5003;49185;42.320;23.198;2023-07-31T02:51:57;24.00;22.33;8.67
72031;PMS5003;49185;42.320;23.198;2023-07-31T02:54:23;22.00;21.67;11.00
72031;PMS5003;49185;42.320;23.198;2023-07-31T02:56:48;23.33;22.00;12.00
72031;PMS5003;49185;42.320;23.198;2023-07-31T02:59:13;24.00;23.00;11.00
72031;PMS5003;49185;42.320;23.198;2023-07-31T03:01:39;24.00;21.33;11.33
72031;PMS5003;49185;42.320;23.198;2023-07-31T03:04:04;24.00;22.00;10.00
72031;PMS5003;49185;42.320;23.198;2023-07-31T03:06:30;23.67;21.00;10.00
72031;PMS5003;49185;42.320;23.198;2023-07-31T03:08:55;24.00;24.00;12.00
72031;PMS5003;49185;42.320;23.198;2023-07-31T03:11:39;25.00;24.00;12.50
72031;PMS5003;49185;42.320;23.198;2023-07-31T03:14:05;24.00;23.33;11.00
72031;PMS5003;49185;42.320;23.198;2023-07-31T03:16:30;26.00;24.00;13.00
72031;PMS5003;49185;42.320;23.198;2023-07-31T03:18:56;25.67;24.00;13.00
72031;PMS5003;49185;42.320;23.198;2023-07-31T03:21:21;25.00;24.67;11.00
72031;PMS5003;49185;42.320;23.198;2023-07-31T03:23:47;25.00;24.00;10.33
72031;PMS5003;49185;42.320;23.198;2023-07-31T03:26:12;26.00;24.00;13.00
72031;PMS5003;49185;42.320;23.198;2023-07-31T03:28:37;29.00;26.00;14.00
72031;PMS5003;49185;42.320;23.198;2023-07-31T03:31:03;29.00;27.00;14.67
72031;PMS5003;49185;42.320;23.198;2023-07-31T03:33:28;29.00;25.00;16.00
72031;PMS5003;49185;42.320;23.198;2023-07-31T03:35:54;28.00;24.00;16.00
72031;PMS5003;49185;42.320;23.198;2023-07-31T03:38:19;28.00;23.00;14.00
72031;PMS5003;49185;42.320;23.198;2023-07-31T03:40:45;26.33;21.67;14.00
72031;PMS5003;49185;42.320;23.198;2023-07-31T03:43:11;25.00;22.00;12.00
72031;PMS5003;49185;42.320;23.198;2023-07-31T03:45:36;28.00;27.00;12.25
72031;PMS5003;49185;42.320;23.198;2023-07-31T03:48:03;26.00;25.00;12.00
72031;PMS5003;49185;42.320;23.198;2023-07-31T03:50:28;26.25;25.50;12.00
72031;PMS5003;49185;42.320;23.198;2023-07-31T03:52:54;28.00;26.00;14.00
72031;PMS5003;49185;42.320;23.198;2023-07-31T03:55:19;29.67;27.67;14.00
72031;PMS5003;49185;42.320;23.198;2023-07-31T03:57:45;30.00;27.67;14.00
72031;PMS5003;49185;42.320;23.198;2023-07-31T04:00:10;28.00;27.00;13.67
72031;PMS5003;49185;42.320;23.198;2023-07-31T04:02:36;29.00;26.00;17.00
72031;PMS5003;49185;42.320;23.198;2023-07-31T04:05:01;32.00;27.33;18.00
72031;PMS5003;49185;42.320;23.198;2023-07-31T04:07:27;32.00;29.00;18.00
72031;PMS5003;49185;42.320;23.198;2023-07-31T04:09:52;29.00;27.00;17.00
72031;PMS5003;49185;42.320;23.198;2023-07-31T04:12:21;31.25;29.25;17.00
72031;PMS5003;49185;42.320;23.198;2023-07-31T04:14:46;31.33;28.00;17.00
72031;PMS5003;49185;42.320;23.198;2023-07-31T04:17:11;30.67;28.00;16.00
72031;PMS5003;49185;42.320;23.198;2023-07-31T04:19:37;31.00;29.00;16.00
72031;PMS5003;49185;42.320;23.198;2023-07-31T04:22:03;30.33;29.00;16.00
72031;PMS5003;49185;42.320;23.198;2023-07-31T04:24:28;30.75;28.00;17.00
72031;PMS5003;49185;42.320;23.198;2023-07-31T04:26:54;33.00;30.00;18.00
72031;PMS5003;49185;42.320;23.198;2023-07-31T04:29:19;30.00;28.00;17.00
72031;PMS5003;49185;42.320;23.198;2023-07-31T04:31:45;28.00;28.00;17.00
72031;PMS5003;49185;42.320;23.198;2023-07-31T04:34:10;30.00;29.00;17.00
72031;PMS5003;49185;42.320;23.198;2023-07-31T04:36:36;31.33;30.00;17.00
72031;PMS5003;49185;42.320;23.198;2023-07-31T04:39:01;32.67;29.00;16.00
72031;PMS5003;49185;42.320;23.198;2023-07-31T04:41:27;31.00;29.00;16.00
72031;PMS5003;49185;42.320;23.198;2023-07-31T04:43:52;31.67;29.00;17.00
72031;PMS5003;49185;42.320;23.198;2023-07-31T04:46:18;32.00;29.00;16.00
72031;PMS5003;49185;42.320;23.198;2023-07-31T04:48:43;33.00;29.00;17.67
72031;PMS5003;49185;42.320;23.198;2023-07-31T04:51:09;30.00;28.00;18.00
72031;PMS5003;49185;42.320;23.198;2023-07-31T04:53:34;30.00;29.00;16.00
72031;PMS5003;49185;42.320;23.198;2023-07-31T04:56:00;30.00;29.00;17.00
72031;PMS5003;49185;42.320;23.198;2023-07-31T04:58:25;29.00;26.67;14.00
72031;PMS5003;49185;42.320;23.198;2023-07-31T05:00:51;27.00;26.33;14.67
72031;PMS5003;49185;42.320;23.198;2023-07-31T05:03:16;27.33;26.00;14.00
72031;PMS5003;49185;42.320;23.198;2023-07-31T05:06:00;29.00;25.75;13.75
72031;PMS5003;49185;42.320;23.198;2023-07-31T05:08:25;33.00;30.00;15.33
72031;PMS5003;49185;42.320;23.198;2023-07-31T05:10:51;31.00;29.00;15.00
72031;PMS5003;49185;42.320;23.198;2023-07-31T05:13:16;29.67;29.00;16.00
72031;PMS5003;49185;42.320;23.198;2023-07-31T05:15:42;31.33;29.00;16.00
72031;PMS5003;49185;42.320;23.198;2023-07-31T05:18:07;32.00;29.00;15.00
72031;PMS5003;49185;42.320;23.198;2023-07-31T05:20:33;29.67;27.67;16.00
72031;PMS5003;49185;42.320;23.198;2023-07-31T05:23:10;29.00;28.00;16.00
72031;PMS5003;49185;42.320;23.198;2023-07-31T05:25:35;31.00;29.33;17.00
72031;PMS5003;49185;42.320;23.198;2023-07-31T05:28:01;33.67;29.00;17.00
72031;PMS5003;49185;42.320;23.198;2023-07-31T05:30:26;31.33;29.00;17.00
72031;PMS5003;49185;42.320;23.198;2023-07-31T05:32:52;31.33;28.00;16.67
72031;PMS5003;49185;42.320;23.198;2023-07-31T05:35:17;32.00;29.00;16.00
72031;PMS5003;49185;42.320;23.198;2023-07-31T05:37:42;33.00;29.67;18.00
72031;PMS5003;49185;42.320;23.198;2023-07-31T05:40:27;33.00;29.00;17.00
72031;PMS5003;49185;42.320;23.198;2023-07-31T05:42:52;33.67;29.00;17.67
72031;PMS5003;49185;42.320;23.198;2023-07-31T05:45:17;31.00;29.00;16.00
72031;PMS5003;49185;42.320;23.198;2023-07-31T05:47:43;31.67;29.00;16.00
72031;PMS5003;49185;42.320;23.198;2023-07-31T05:50:08;32.33;29.33;18.00
72031;PMS5003;49185;42.320;23.198;2023-07-31T05:52:34;32.00;29.00;17.00
72031;PMS5003;49185;42.320;23.198;2023-07-31T05:54:59;31.00;28.67;15.00
72031;PMS5003;49185;42.320;23.198;2023-07-31T05:57:25;30.00;28.00;13.33
72031;PMS5003;49185;42.320;23.198;2023-07-31T05:59:50;30.67;29.00;15.33
72031;PMS5003;49185;42.320;23.198;2023-07-31T06:02:16;30.00;29.00;15.00
72031;PMS5003;49185;42.320;23.198;2023-07-31T06:04:41;30.67;28.00;14.67
72031;PMS5003;49185;42.320;23.198;2023-07-31T06:07:07;30.00;28.00;15.50
72031;PMS5003;49185;42.320;23.198;2023-07-31T06:09:33;32.00;29.00;17.00
72031;PMS5003;49185;42.320;23.198;2023-07-31T06:11:58;29.33;28.33;16.33
72031;PMS5003;49185;42.320;23.198;2023-07-31T06:14:24;32.00;29.00;15.00
72031;PMS5003;49185;42.320;23.198;2023-07-31T06:16:49;30.67;28.00;16.00
72031;PMS5003;49185;42.320;23.198;2023-07-31T06:19:15;30.33;29.00;16.00
72031;PMS5003;49185;42.320;23.198;2023-07-31T06:21:40;34.00;31.00;18.00
72031;PMS5003;49185;42.320;23.198;2023-07-31T06:24:06;30.00;28.00;17.67
72031;PMS5003;49185;42.320;23.198;2023-07-31T06:26:31;31.00;28.33;17.00
72031;PMS5003;49185;42.320;23.198;2023-07-31T06:28:57;29.00;28.00;16.00
72031;PMS5003;49185;42.320;23.198;2023-07-31T06:31:22;25.33;25.00;15.00
72031;PMS5003;49185;42.320;23.198;2023-07-31T06:33:48;27.33;25.00;12.00
72031;PMS5003;49185;42.320;23.198;2023-07-31T06:36:17;24.00;21.00;8.00
72031;PMS5003;49185;42.320;23.198;2023-07-31T06:38:43;22.00;21.00;8.00
72031;PMS5003;49185;42.320;23.198;2023-07-31T06:41:09;23.00;20.00;7.67
72031;PMS5003;49185;42.320;23.198;2023-07-31T06:43:34;22.00;20.00;9.00
72031;PMS5003;49185;42.320;23.198;2023-07-31T06:46:04;21.67;20.00;8.00
72031;PMS5003;49185;42.320;23.198;2023-07-31T06:48:32;20.00;18.00;8.00
72031;PMS5003;49185;42.320;23.198;2023-07-31T06:50:58;18.00;18.00;6.00
72031;PMS5003;49185;42.320;23.198;2023-07-31T06:53:25;17.75;17.50;7.00
72031;PMS5003;49185;42.320;23.198;2023-07-31T06:55:50;18.00;18.00;7.33
72031;PMS5003;49185;42.320;23.198;2023-07-31T06:58:16;17.00;16.00;6.00
72031;PMS5003;49185;42.320;23.198;2023-07-31T07:00:41;15.00;14.33;5.00
72031;PMS5003;49185;42.320;23.198;2023-07-31T07:03:07;16.00;13.67;5.67
72031;PMS5003;49185;42.320;23.198;2023-07-31T07:05:32;18.00;14.67;6.00
72031;PMS5003;49185;42.320;23.198;2023-07-31T07:07:57;16.00;15.00;7.00
72031;PMS5003;49185;42.320;23.198;2023-07-31T07:10:23;16.00;15.00;8.00
72031;PMS5003;49185;42.320;23.198;2023-07-31T07:12:48;15.00;14.00;7.67
72031;PMS5003;49185;42.320;23.198;2023-07-31T07:15:14;16.00;16.00;6.00
72031;PMS5003;49185;42.320;23.198;2023-07-31T07:17:39;15.00;14.00;5.67
72031;PMS5003;49185;42.320;23.198;2023-07-31T07:20:05;15.33;14.33;7.33
72031;PMS5003;49185;42.320;23.198;2023-07-31T07:22:31;16.50;15.50;8.00
72031;PMS5003;49185;42.320;23.198;2023-07-31T07:24:56;16.00;16.00;7.67
72031;PMS5003;49185;42.320;23.198;2023-07-31T07:27:22;17.00;16.00;7.00
72031;PMS5003;49185;42.320;23.198;2023-07-31T07:29:49;17.00;16.00;5.00
72031;PMS5003;49185;42.320;23.198;2023-07-31T07:32:15;18.75;17.75;8.00
72031;PMS5003;49185;42.320;23.198;2023-07-31T07:34:41;17.00;16.00;5.00
72031;PMS5003;49185;42.320;23.198;2023-07-31T07:37:06;16.00;15.00;6.00
72031;PMS5003;49185;42.320;23.198;2023-07-31T07:39:32;17.00;12.33;6.00
72031;PMS5003;49185;42.320;23.198;2023-07-31T07:41:57;13.00;9.00;4.00
72031;PMS5003;49185;42.320;23.198;2023-07-31T07:44:23;11.67;9.67;4.00
72031;PMS5003;49185;42.320;23.198;2023-07-31T07:46:48;15.00;12.00;4.00
72031;PMS5003;49185;42.320;23.198;2023-07-31T07:49:13;13.33;11.00;5.00
72031;PMS5003;49185;42.320;23.198;2023-07-31T07:51:39;12.00;11.00;5.00
72031;PMS5003;49185;42.320;23.198;2023-07-31T07:54:04;9.00;9.00;4.00
72031;PMS5003;49185;42.320;23.198;2023-07-31T07:56:30;9.33;9.00;4.00
72031;PMS5003;49185;42.320;23.198;2023-07-31T07:58:55;15.33;13.33;6.00
72031;PMS5003;49185;42.320;23.198;2023-07-31T08:01:20;16.00;12.67;5.67
72031;PMS5003;49185;42.320;23.198;2023-07-31T08:03:47;15.00;12.33;5.33
72031;PMS5003;49185;42.320;23.198;2023-07-31T08:06:12;12.00;9.75;5.00
72031;PMS5003;49185;42.320;23.198;2023-07-31T08:08:39;7.00;6.00;3.00
72031;PMS5003;49185;42.320;23.198;2023-07-31T08:11:05;8.00;7.00;2.75
72031;PMS5003;49185;42.320;23.198;2023-07-31T08:13:31;6.00;6.00;2.00
72031;PMS5003;49185;42.320;23.198;2023-07-31T08:15:56;6.33;6.33;3.00
72031;PMS5003;49185;42.320;23.198;2023-07-31T08:18:22;5.00;5.00;3.00
72031;PMS5003;49185;42.320;23.198;2023-07-31T08:20:47;4.00;3.67;2.00
72031;PMS5003;49185;42.320;23.198;2023-07-31T08:23:13;5.67;5.67;2.67
72031;PMS5003;49185;42.320;23.198;2023-07-31T08:25:39;4.00;4.00;2.00
72031;PMS5003;49185;42.320;23.198;2023-07-31T08:28:05;6.00;5.00;2.00
72031;PMS5003;49185;42.320;23.198;2023-07-31T08:30:31;7.25;5.00;1.00
72031;PMS5003;49185;42.320;23.198;2023-07-31T08:32:57;6.00;6.00;2.00
72031;PMS5003;49185;42.320;23.198;2023-07-31T08:35:24;4.00;4.00;1.00
72031;PMS5003;49185;42.320;23.198;2023-07-31T08:37:50;6.25;5.25;1.75
72031;PMS5003;49185;42.320;23.198;2023-07-31T08:40:16;6.33;6.00;3.00
72031;PMS5003;49185;42.320;23.198;2023-07-31T08:42:43;3.67;3.67;2.33
72031;PMS5003;49185;42.320;23.198;2023-07-31T08:45:09;3.75;3.75;2.50
72031;PMS5003;49185;42.320;23.198;2023-07-31T08:47:41;5.25;5.00;2.00
72031;PMS5003;49185;42.320;23.198;2023-07-31T08:50:14;5.00;4.50;1.00
72031;PMS5003;49185;42.320;23.198;2023-07-31T08:52:41;3.00;3.00;1.00
72031;PMS5003;49185;42.320;23.198;2023-07-31T08:55:07;3.33;2.33;0.33
72031;PMS5003;49185;42.320;23.198;2023-07-31T08:57:34;3.50;3.00;0.00
72031;PMS5003;49185;42.320;23.198;2023-07-31T09:00:02;3.50;3.50;0.00
72031;PMS5003;49185;42.320;23.198;2023-07-31T09:02:30;2.25;2.25;0.00
72031;PMS5003;49185;42.320;23.198;2023-07-31T09:05:03;5.25;5.25;0.00
72031;PMS5003;49185;42.320;23.198;2023-07-31T09:07:30;4.00;4.00;0.00
72031;PMS5003;49185;42.320;23.198;2023-07-31T09:09:57;6.00;6.00;1.00
72031;PMS5003;49185;42.320;23.198;2023-07-31T09:12:22;6.00;5.00;2.00
72031;PMS5003;49185;42.320;23.198;2023-07-31T09:14:47;5.00;5.00;3.00
72031;PMS5003;49185;42.320;23.198;2023-07-31T09:17:13;5.00;4.00;2.00
72031;PMS5003;49185;42.320;23.198;2023-07-31T09:19:38;3.33;2.33;1.33
72031;PMS5003;49185;42.320;23.198;2023-07-31T09:22:28;3.00;2.00;0.00
72031;PMS5003;49185;42.320;23.198;2023-07-31T09:25:15;2.00;2.00;0.00
72031;PMS5003;49185;42.320;23.198;2023-07-31T09:27:45;1.00;0.00;0.00
72031;PMS5003;49185;42.320;23.198;2023-07-31T09:30:23;1.50;1.25;0.00
72031;PMS5003;49185;42.320;23.198;2023-07-31T09:32:49;1.00;1.00;0.00
72031;PMS5003;49185;42.320;23.198;2023-07-31T09:52:53;0.00;0.00;0.00
72031;PMS5003;49185;42.320;23.198;2023-07-31T09:55:39;0.00;0.00;0.00
72031;PMS5003;49185;42.320;23.198;2023-07-31T09:58:26;0.50;0.00;0.00
72031;PMS5003;49185;42.320;23.198;2023-07-31T10:01:14;4.00;3.50;0.00
72031;PMS5003;49185;42.320;23.198;2023-07-31T10:04:00;2.00;2.00;0.00
72031;PMS5003;49185;42.320;23.198;2023-07-31T10:06:47;2.00;1.00;0.00
72031;PMS5003;49185;42.320;23.198;2023-07-31T10:09:35;3.50;2.50;0.00
72031;PMS5003;49185;42.320;23.198;2023-07-31T10:12:21;2.00;2.00;0.00
72031;PMS5003;49185;42.320;23.198;2023-07-31T10:15:10;2.00;2.00;0.00
72031;PMS5003;49185;42.320;23.198;2023-07-31T10:17:57;2.00;2.00;0.00
72031;PMS5003;49185;42.320;23.198;2023-07-31T10:20:44;1.00;0.00;0.00
72031;PMS5003;49185;42.320;23.198;2023-07-31T10:23:32;0.00;0.00;0.00
72031;PMS5003;49185;42.320;23.198;2023-07-31T10:26:18;0.75;0.00;0.00
72031;PMS5003;49185;42.320;23.198;2023-07-31T10:29:05;3.00;2.00;0.00
72031;PMS5003;49185;42.320;23.198;2023-07-31T10:31:51;3.50;3.50;0.00
72031;PMS5003;49185;42.320;23.198;2023-07-31T10:34:38;2.00;2.00;0.00
72031;PMS5003;49185;42.320;23.198;2023-07-31T10:37:27;1.00;1.00;0.00
72031;PMS5003;49185;42.320;23.198;2023-07-31T10:40:25;1.50;1.50;0.50
72031;PMS5003;49185;42.320;23.198;2023-07-31T10:43:23;2.00;2.00;0.00
72031;PMS5003;49185;42.320;23.198;2023-07-31T10:46:14;2.75;1.75;1.00
72031;PMS5003;49185;42.320;23.198;2023-07-31T10:48:40;1.00;1.00;0.00
72031;PMS5003;49185;42.320;23.198;2023-07-31T10:51:10;1.25;1.00;0.00
72031;PMS5003;49185;42.320;23.198;2023-07-31T10:53:37;2.00;2.00;0.00
72031;PMS5003;49185;42.320;23.198;2023-07-31T10:56:12;1.00;1.00;0.00
72031;PMS5003;49185;42.320;23.198;2023-07-31T10:58:38;2.00;2.00;0.00
72031;PMS5003;49185;42.320;23.198;2023-07-31T11:01:04;1.33;1.00;0.00
72031;PMS5003;49185;42.320;23.198;2023-07-31T11:03:47;2.00;2.00;0.00
72031;PMS5003;49185;42.320;23.198;2023-07-31T11:06:17;1.50;1.50;0.00
72031;PMS5003;49185;42.320;23.198;2023-07-31T11:08:50;2.00;1.00;0.00
72031;PMS5003;49185;42.320;23.198;2023-07-31T11:11:16;2.00;1.00;0.00
72031;PMS5003;49185;42.320;23.198;2023-07-31T11:13:46;2.00;1.00;0.00
72031;PMS5003;49185;42.320;23.198;2023-07-31T11:16:15;3.00;3.00;0.00
72031;PMS5003;49185;42.320;23.198;2023-07-31T11:18:43;2.50;2.50;0.00
72031;PMS5003;49185;42.320;23.198;2023-07-31T11:21:13;4.00;4.00;0.00
72031;PMS5003;49185;42.320;23.198;2023-07-31T11:23:47;5.50;4.25;0.50
72031;PMS5003;49185;42.320;23.198;2023-07-31T11:26:14;2.00;2.00;0.00
72031;PMS5003;49185;42.320;23.198;2023-07-31T11:28:39;1.00;1.00;0.00
72031;PMS5003;49185;42.320;23.198;2023-07-31T11:31:05;1.00;1.00;0.00
72031;PMS5003;49185;42.320;23.198;2023-07-31T11:33:34;1.00;1.00;0.00
72031;PMS5003;49185;42.320;23.198;2023-07-31T11:35:59;4.00;4.00;0.00
72031;PMS5003;49185;42.320;23.198;2023-07-31T11:38:34;3.00;3.00;0.00
72031;PMS5003;49185;42.320;23.198;2023-07-31T11:41:00;2.00;2.00;0.00
72031;PMS5003;49185;42.320;23.198;2023-07-31T11:43:28;2.00;2.00;0.00
72031;PMS5003;49185;42.320;23.198;2023-07-31T11:45:55;1.25;1.25;0.00
72031;PMS5003;49185;42.320;23.198;2023-07-31T11:48:22;0.00;0.00;0.00
72031;PMS5003;49185;42.320;23.198;2023-07-31T11:50:52;0.50;0.50;0.00
72031;PMS5003;49185;42.320;23.198;2023-07-31T11:54:01;2.00;2.00;0.00
72031;PMS5003;49185;42.320;23.198;2023-07-31T11:56:10;0.75;0.75;0.00
72031;PMS5003;49185;42.320;23.198;2023-07-31T11:58:38;0.00;0.00;0.00
72031;PMS5003;49185;42.320;23.198;2023-07-31T12:01:05;0.00;0.00;0.00
72031;PMS5003;49185;42.320;23.198;2023-07-31T12:03:32;0.00;0.00;0.00
72031;PMS5003;49185;42.320;23.198;2023-07-31T12:05:59;0.00;0.00;0.00
72031;PMS5003;49185;42.320;23.198;2023-07-31T12:08:25;1.00;1.00;0.00
72031;PMS5003;49185;42.320;23.198;2023-07-31T12:10:51;0.00;0.00;0.00
72031;PMS5003;49185;42.320;23.198;2023-07-31T12:13:25;0.00;0.00;0.00
72031;PMS5003;49185;42.320;23.198;2023-07-31T12:15:58;1.00;0.00;0.00
72031;PMS5003;49185;42.320;23.198;2023-07-31T12:18:26;1.00;0.00;0.00
72031;PMS5003;49185;42.320;23.198;2023-07-31T12:20:54;1.00;1.00;0.00
72031;PMS5003;49185;42.320;23.198;2023-07-31T12:23:25;0.00;0.00;0.00
72031;PMS5003;49185;42.320;23.198;2023-07-31T12:26:05;2.00;2.00;0.00
72031;PMS5003;49185;42.320;23.198;2023-07-31T12:28:48;1.00;1.00;0.00
72031;PMS5003;49185;42.320;23.198;2023-07-31T12:31:15;2.00;2.00;0.00
72031;PMS5003;49185;42.320;23.198;2023-07-31T12:33:43;0.75;0.25;0.00
72031;PMS5003;49185;42.320;23.198;2023-07-31T12:36:10;2.00;1.00;0.00
72031;PMS5003;49185;42.320;23.198;2023-07-31T12:38:37;1.50;1.50;0.00
72031;PMS5003;49185;42.320;23.198;2023-07-31T12:41:03;0.00;0.00;0.00
72031;PMS5003;49185;42.320;23.198;2023-07-31T12:43:29;0.00;0.00;0.00
72031;PMS5003;49185;42.320;23.198;2023-07-31T12:45:54;2.00;2.00;0.00
72031;PMS5003;49185;42.320;23.198;2023-07-31T12:48:20;0.00;0.00;0.00
72031;PMS5003;49185;42.320;23.198;2023-07-31T12:50:46;2.00;2.00;0.00
72031;PMS5003;49185;42.320;23.198;2023-07-31T12:53:12;4.00;4.00;0.00
72031;PMS5003;49185;42.320;23.198;2023-07-31T12:55:37;3.00;3.00;0.00
72031;PMS5003;49185;42.320;23.198;2023-07-31T12:58:03;3.00;2.00;0.00
72031;PMS5003;49185;42.320;23.198;2023-07-31T13:00:28;4.00;3.00;0.00
72031;PMS5003;49185;42.320;23.198;2023-07-31T13:02:54;3.00;3.00;0.00
72031;PMS5003;49185;42.320;23.198;2023-07-31T13:05:19;3.67;3.67;0.00
72031;PMS5003;49185;42.320;23.198;2023-07-31T13:07:46;4.00;4.00;0.00
72031;PMS5003;49185;42.320;23.198;2023-07-31T13:10:12;3.00;3.00;0.00
72031;PMS5003;49185;42.320;23.198;2023-07-31T13:12:37;3.33;3.00;0.00
72031;PMS5003;49185;42.320;23.198;2023-07-31T13:15:04;2.00;2.00;0.00
72031;PMS5003;49185;42.320;23.198;2023-07-31T13:17:30;4.00;4.00;0.00
72031;PMS5003;49185;42.320;23.198;2023-07-31T13:19:55;6.33;6.33;0.00
72031;PMS5003;49185;42.320;23.198;2023-07-31T13:22:21;6.00;6.00;0.00
72031;PMS5003;49185;42.320;23.198;2023-07-31T13:24:46;5.00;5.00;0.00
72031;PMS5003;49185;42.320;23.198;2023-07-31T13:27:12;6.00;6.00;0.00
72031;PMS5003;49185;42.320;23.198;2023-07-31T13:29:37;7.00;6.00;2.67
72031;PMS5003;49185;42.320;23.198;2023-07-31T13:32:03;6.00;6.00;2.00
72031;PMS5003;49185;42.320;23.198;2023-07-31T13:34:28;4.67;4.67;1.67
72031;PMS5003;49185;42.320;23.198;2023-07-31T13:36:54;6.00;5.00;1.00
72031;PMS5003;49185;42.320;23.198;2023-07-31T13:39:19;6.33;5.67;2.33
72031;PMS5003;49185;42.320;23.198;2023-07-31T13:41:45;6.33;6.33;2.00
72031;PMS5003;49185;42.320;23.198;2023-07-31T13:44:10;5.00;5.00;2.00
72031;PMS5003;49185;42.320;23.198;2023-07-31T13:46:37;6.00;6.00;2.00
72031;PMS5003;49185;42.320;23.198;2023-07-31T13:49:02;9.00;7.67;2.00
72031;PMS5003;49185;42.320;23.198;2023-07-31T13:51:28;8.67;8.00;2.33
72031;PMS5003;49185;42.320;23.198;2023-07-31T13:53:53;11.67;11.67;4.00
72031;PMS5003;49185;42.320;23.198;2023-07-31T13:56:19;12.00;11.67;5.67
72031;PMS5003;49185;42.320;23.198;2023-07-31T13:58:44;9.33;9.33;4.00
72031;PMS5003;49185;42.320;23.198;2023-07-31T14:01:10;9.00;9.00;4.67
72031;PMS5003;49185;42.320;23.198;2023-07-31T14:03:35;10.67;10.00;5.00
72031;PMS5003;49185;42.320;23.198;2023-07-31T14:06:01;9.67;9.00;3.00
72031;PMS5003;49185;42.320;23.198;2023-07-31T14:08:26;9.33;8.00;4.33
72031;PMS5003;49185;42.320;23.198;2023-07-31T14:10:52;9.67;9.67;4.00
72031;PMS5003;49185;42.320;23.198;2023-07-31T14:13:17;12.67;11.67;4.00
72031;PMS5003;49185;42.320;23.198;2023-07-31T14:15:43;15.00;12.00;4.67
72031;PMS5003;49185;42.320;23.198;2023-07-31T14:18:08;13.00;10.00;4.00
72031;PMS5003;49185;42.320;23.198;2023-07-31T14:20:34;14.00;11.00;5.00